createdAt,value
2023-05-14T00:00:00.812Z,99.90
2023-05-14T00:02:33.203Z,99.90
2023-05-14T00:05:03.634Z,99.90
2023-05-14T00:07:34.389Z,99.90
2023-05-14T00:10:05.130Z,99.90
2023-05-14T00:12:36.188Z,99.90
2023-05-14T00:15:08.053Z,99.90
2023-05-14T00:17:40.645Z,99.90
2023-05-14T00:20:12.553Z,99.90
2023-05-14T00:22:43.363Z,99.90
2023-05-14T00:25:13.838Z,99.90
2023-05-14T00:27:44.528Z,99.90
2023-05-14T00:30:15.255Z,99.90
2023-05-14T00:32:47.886Z,99.90
2023-05-14T00:35:18.099Z,99.90
2023-05-14T00:37:49.004Z,99.90
2023-05-14T00:40:19.462Z,99.90
2023-05-14T00:42:50.080Z,99.90
2023-05-14T00:45:20.562Z,99.90
2023-05-14T00:47:53.579Z,99.90
2023-05-14T00:50:24.703Z,99.90
2023-05-14T00:52:55.808Z,99.90
2023-05-14T00:55:26.880Z,99.90
2023-05-14T00:57:59.403Z,99.90
2023-05-14T01:00:29.755Z,99.90
2023-05-14T01:03:03.153Z,99.90
2023-05-14T01:05:43.820Z,99.90
2023-05-14T01:08:26.961Z,99.90
2023-05-14T01:11:05.024Z,99.90
2023-05-14T01:13:48.618Z,99.90
2023-05-14T01:16:21.321Z,99.90
2023-05-14T01:18:55.090Z,99.90
2023-05-14T01:21:45.170Z,99.90
2023-05-14T01:24:15.805Z,99.90
2023-05-14T01:26:46.204Z,99.90
2023-05-14T01:29:22.765Z,99.90
2023-05-14T01:31:55.564Z,99.90
2023-05-14T01:34:29.640Z,99.90
2023-05-14T01:37:03.167Z,99.90
2023-05-14T01:39:34.786Z,99.90
2023-05-14T01:42:06.672Z,99.90
2023-05-14T01:44:37.778Z,99.90
2023-05-14T01:47:08.318Z,99.90
2023-05-14T01:49:39.058Z,99.90
2023-05-14T01:52:11.019Z,99.90
2023-05-14T01:54:41.725Z,99.90
2023-05-14T01:57:12.107Z,99.90
2023-05-14T01:59:42.740Z,99.90
2023-05-14T02:02:13.116Z,99.90
2023-05-14T02:04:43.759Z,99.90
2023-05-14T02:07:16.493Z,99.90
2023-05-14T02:09:47.572Z,99.90
2023-05-14T02:12:18.070Z,99.90
2023-05-14T02:14:48.801Z,99.90
2023-05-14T02:17:19.947Z,99.90
2023-05-14T02:19:51.334Z,99.90
2023-05-14T02:22:23.596Z,99.90
2023-05-14T02:24:56.826Z,99.90
2023-05-14T02:27:28.233Z,99.90
2023-05-14T02:30:00.946Z,99.90
2023-05-14T02:32:31.361Z,99.90
2023-05-14T02:35:04.705Z,99.90
2023-05-14T02:37:38.471Z,99.90
2023-05-14T02:40:10.958Z,99.90
2023-05-14T02:42:41.440Z,99.90
2023-05-14T02:45:12.987Z,99.90
2023-05-14T02:47:43.863Z,99.90
2023-05-14T02:50:14.870Z,99.90
2023-05-14T02:52:46.800Z,99.90
2023-05-14T02:55:17.597Z,99.90
2023-05-14T02:57:47.920Z,99.90
2023-05-14T03:00:19.463Z,99.90
2023-05-14T03:02:50.802Z,99.90
2023-05-14T03:05:22.978Z,99.90
2023-05-14T03:07:55.090Z,99.90
2023-05-14T03:10:26.109Z,99.90
2023-05-14T03:12:56.661Z,99.90
2023-05-14T03:15:27.446Z,99.90
2023-05-14T03:17:57.586Z,99.90
2023-05-14T03:20:28.884Z,99.90
2023-05-14T03:23:00.646Z,99.90
2023-05-14T03:25:31.310Z,99.90
2023-05-14T03:28:01.882Z,99.90
2023-05-14T03:30:32.657Z,99.90
2023-05-14T03:33:03.049Z,99.90
2023-05-14T03:35:33.503Z,99.90
2023-05-14T03:38:05.168Z,99.90
2023-05-14T03:40:38.318Z,99.90
2023-05-14T03:43:08.658Z,99.90
2023-05-14T03:45:39.407Z,99.90
2023-05-14T03:48:09.895Z,99.90
2023-05-14T03:50:41.462Z,99.90
2023-05-14T03:53:13.112Z,99.90
2023-05-14T03:55:43.863Z,99.90
2023-05-14T03:58:15.331Z,99.90
2023-05-14T04:00:46.204Z,99.90
2023-05-14T04:03:16.760Z,99.90
2023-05-14T04:05:47.784Z,99.90
2023-05-14T04:08:19.453Z,99.90
2023-05-14T04:10:49.949Z,99.90
2023-05-14T04:13:20.366Z,99.90
2023-05-14T04:15:51.140Z,99.90
2023-05-14T04:18:21.443Z,99.90
2023-05-14T04:20:52.835Z,99.90
2023-05-14T04:23:24.402Z,99.90
2023-05-14T04:25:55.315Z,99.90
2023-05-14T04:28:25.797Z,99.90
2023-05-14T04:30:56.558Z,99.90
2023-05-14T04:33:26.839Z,99.90
2023-05-14T04:35:57.687Z,99.90
2023-05-14T04:38:29.411Z,99.90
2023-05-14T04:41:00.321Z,99.90
2023-05-14T04:43:30.675Z,99.90
2023-05-14T04:46:01.331Z,99.90
2023-05-14T04:48:31.708Z,99.90
2023-05-14T04:51:03.245Z,99.90
2023-05-14T04:53:36.118Z,99.90
2023-05-14T04:56:07.072Z,99.90
2023-05-14T04:58:37.512Z,99.90
2023-05-14T05:01:08.416Z,99.90
2023-05-14T05:03:38.665Z,99.90
2023-05-14T05:06:09.757Z,99.90
2023-05-14T05:08:41.647Z,99.90
2023-05-14T05:11:12.304Z,99.90
2023-05-14T05:13:42.639Z,99.90
2023-05-14T05:16:13.828Z,99.90
2023-05-14T05:18:45.138Z,99.90
2023-05-14T05:21:16.526Z,99.90
2023-05-14T05:23:48.365Z,99.90
2023-05-14T05:26:19.448Z,99.90
2023-05-14T05:28:50.092Z,99.90
2023-05-14T05:31:21.071Z,99.90
2023-05-14T05:33:51.477Z,99.90
2023-05-14T05:36:22.235Z,99.90
2023-05-14T05:38:53.766Z,99.90
2023-05-14T05:41:24.523Z,99.90
2023-05-14T05:43:55.058Z,99.90
2023-05-14T05:46:28.166Z,99.90
2023-05-14T05:48:58.822Z,99.90
2023-05-14T05:51:30.261Z,99.90
2023-05-14T05:54:01.975Z,99.90
2023-05-14T05:56:32.677Z,99.90
2023-05-14T05:59:04.196Z,99.90
2023-05-14T06:01:34.997Z,99.90
2023-05-14T06:04:06.417Z,99.90
2023-05-14T06:06:37.091Z,99.90
2023-05-14T06:09:09.135Z,99.90
2023-05-14T06:11:39.734Z,99.90
2023-05-14T06:14:10.484Z,99.90
2023-05-14T06:16:41.067Z,99.90
2023-05-14T06:19:11.482Z,99.90
2023-05-14T06:21:42.248Z,99.90
2023-05-14T06:24:14.258Z,99.90
2023-05-14T06:26:44.992Z,99.90
2023-05-14T06:29:15.269Z,99.90
2023-05-14T06:31:46.637Z,99.90
2023-05-14T06:34:19.395Z,99.90
2023-05-14T06:36:50.670Z,99.90
2023-05-14T06:39:22.511Z,99.90
2023-05-14T06:41:53.629Z,99.90
2023-05-14T06:44:29.127Z,99.90
2023-05-14T06:47:00.156Z,99.90
2023-05-14T06:49:31.808Z,99.90
2023-05-14T06:52:02.688Z,99.40
2023-05-14T06:54:34.362Z,99.80
2023-05-14T06:57:05.488Z,99.90
2023-05-14T06:59:36.027Z,99.90
2023-05-14T07:02:06.955Z,99.90
2023-05-14T07:04:37.725Z,98.70
2023-05-14T07:07:10.702Z,98.10
2023-05-14T07:09:43.215Z,98.60
2023-05-14T07:12:14.023Z,98.20
2023-05-14T07:14:44.812Z,98.00
2023-05-14T07:17:15.766Z,96.40
2023-05-14T07:19:47.311Z,96.20
2023-05-14T07:22:18.127Z,95.90
2023-05-14T07:24:50.506Z,95.70
2023-05-14T07:27:21.228Z,96.00
2023-05-14T07:29:51.767Z,95.80
2023-05-14T07:32:22.471Z,95.30
2023-05-14T07:34:52.545Z,94.80
2023-05-14T07:37:26.026Z,93.60
2023-05-14T07:39:57.799Z,95.30
2023-05-14T07:42:35.956Z,94.40
2023-05-14T07:45:09.783Z,94.50
2023-05-14T07:47:41.860Z,94.90
2023-05-14T07:50:13.280Z,94.60
2023-05-14T07:52:43.843Z,94.40
2023-05-14T07:55:15.754Z,94.40
2023-05-14T07:57:46.590Z,95.20
2023-05-14T08:00:17.491Z,94.50
2023-05-14T08:02:49.132Z,94.50
2023-05-14T08:05:19.991Z,93.40
2023-05-14T08:07:50.604Z,94.30
2023-05-14T08:10:22.843Z,94.70
2023-05-14T08:12:53.639Z,95.50
2023-05-14T08:15:27.139Z,95.00
2023-05-14T08:18:03.330Z,94.20
2023-05-14T08:20:33.781Z,94.30
2023-05-14T08:23:04.447Z,94.50
2023-05-14T08:25:36.481Z,94.10
2023-05-14T08:28:07.346Z,94.50
2023-05-14T08:30:37.702Z,93.30
2023-05-14T08:33:08.363Z,95.20
2023-05-14T08:35:38.639Z,94.10
2023-05-14T08:38:09.437Z,93.50
2023-05-14T08:40:41.681Z,93.20
2023-05-14T08:43:13.685Z,93.10
2023-05-14T08:45:44.998Z,94.20
2023-05-14T08:48:17.647Z,94.40
2023-05-14T08:50:48.129Z,93.70
2023-05-14T08:53:18.767Z,92.90
2023-05-14T08:55:52.872Z,93.40
2023-05-14T08:58:23.836Z,92.80
2023-05-14T09:00:56.291Z,92.60
2023-05-14T09:03:27.402Z,93.50
2023-05-14T09:05:59.966Z,93.70
2023-05-14T09:08:31.478Z,92.80
2023-05-14T09:11:03.318Z,92.60
2023-05-14T09:13:34.178Z,92.70
2023-05-14T09:16:05.743Z,92.70
2023-05-14T09:18:38.186Z,92.70
2023-05-14T09:21:10.437Z,92.70
2023-05-14T09:23:44.846Z,92.70
2023-05-14T09:26:19.800Z,92.10
2023-05-14T09:28:50.619Z,92.50
2023-05-14T09:31:21.267Z,92.70
2023-05-14T09:33:55.062Z,92.80
2023-05-14T09:36:27.196Z,92.40
2023-05-14T09:38:59.006Z,92.10
2023-05-14T09:41:30.674Z,92.20
2023-05-14T09:44:03.038Z,92.50
2023-05-14T09:46:34.438Z,91.50
2023-05-14T09:49:05.253Z,91.90
2023-05-14T09:51:35.436Z,93.00
2023-05-14T09:54:06.987Z,92.60
2023-05-14T09:56:39.644Z,92.40
2023-05-14T09:59:10.297Z,91.40
2023-05-14T10:01:43.178Z,91.80
2023-05-14T10:04:15.189Z,91.60
2023-05-14T10:06:48.604Z,91.40
2023-05-14T10:09:26.455Z,91.20
2023-05-14T10:12:02.107Z,91.10
2023-05-14T10:14:40.252Z,90.20
2023-05-14T10:17:18.519Z,92.10
2023-05-14T10:19:55.848Z,92.60
2023-05-14T10:22:28.791Z,90.10
2023-05-14T10:24:59.922Z,90.30
2023-05-14T10:27:31.954Z,90.00
2023-05-14T10:30:07.090Z,91.10
2023-05-14T10:32:38.100Z,90.70
2023-05-14T10:35:20.815Z,89.70
2023-05-14T10:37:53.190Z,90.00
2023-05-14T10:40:26.187Z,89.10
2023-05-14T10:43:01.751Z,89.00
2023-05-14T10:45:34.500Z,88.60
2023-05-14T10:48:05.062Z,88.60
2023-05-14T10:50:36.673Z,90.70
2023-05-14T10:53:07.227Z,90.00
2023-05-14T10:55:37.999Z,91.70
2023-05-14T10:58:10.643Z,91.20
2023-05-14T11:00:40.949Z,90.90
2023-05-14T11:03:13.352Z,90.80
2023-05-14T11:05:45.338Z,89.10
2023-05-14T11:08:16.187Z,89.80
2023-05-14T11:10:47.321Z,88.90
2023-05-14T11:13:21.336Z,88.60
2023-05-14T11:15:52.844Z,90.70
2023-05-14T11:18:30.118Z,90.80
2023-05-14T11:21:01.576Z,89.90
2023-05-14T11:23:32.055Z,91.00
2023-05-14T11:26:02.920Z,90.40
2023-05-14T11:28:34.800Z,88.70
2023-05-14T11:31:05.770Z,88.30
2023-05-14T11:33:37.078Z,87.90
2023-05-14T11:36:08.279Z,88.60
2023-05-14T11:38:50.715Z,86.50
2023-05-14T11:41:23.359Z,87.60
2023-05-14T11:43:55.675Z,87.40
2023-05-14T11:46:26.356Z,87.20
2023-05-14T11:48:56.840Z,89.40
2023-05-14T11:51:27.486Z,86.10
2023-05-14T11:53:59.016Z,86.80
2023-05-14T11:56:29.604Z,85.50
2023-05-14T11:59:01.326Z,87.80
2023-05-14T12:01:37.002Z,85.30
2023-05-14T12:04:07.936Z,83.40
2023-05-14T12:06:40.277Z,85.00
2023-05-14T12:09:16.356Z,84.30
2023-05-14T12:11:47.590Z,82.40
2023-05-14T12:14:21.470Z,84.30
2023-05-14T12:16:52.648Z,82.40
2023-05-14T12:19:23.538Z,82.50
2023-05-14T12:21:54.232Z,85.60
2023-05-14T12:24:26.841Z,86.30
2023-05-14T12:26:57.573Z,86.30
2023-05-14T12:29:29.405Z,87.50
2023-05-14T12:32:00.391Z,82.80
2023-05-14T12:34:30.304Z,83.50
2023-05-14T12:37:01.241Z,85.10
2023-05-14T12:39:34.839Z,83.40
2023-05-14T12:42:05.920Z,80.80
2023-05-14T12:44:37.665Z,81.70
2023-05-14T12:47:09.598Z,83.40
2023-05-14T12:49:39.981Z,83.40
2023-05-14T12:54:44.214Z,81.90
2023-05-14T12:57:15.163Z,85.10
2023-05-14T12:59:47.098Z,84.70
2023-05-14T13:02:18.900Z,81.10
2023-05-14T13:04:49.467Z,83.80
2023-05-14T13:07:20.516Z,83.80
2023-05-14T13:09:50.995Z,86.80
2023-05-14T13:12:21.654Z,86.10
2023-05-14T13:14:53.401Z,85.20
2023-05-14T13:17:24.169Z,83.30
2023-05-14T13:19:54.535Z,84.60
2023-05-14T13:22:25.562Z,83.90
2023-05-14T13:24:55.999Z,85.60
2023-05-14T13:27:26.730Z,85.70
2023-05-14T13:29:58.478Z,86.30
2023-05-14T13:32:29.324Z,87.60
2023-05-14T13:34:59.444Z,85.30
2023-05-14T13:37:30.519Z,85.90
2023-05-14T13:40:00.761Z,86.60
2023-05-14T13:42:31.538Z,86.30
2023-05-14T13:45:03.601Z,84.90
2023-05-14T13:47:36.080Z,84.50
2023-05-14T13:50:07.862Z,83.80
2023-05-14T13:52:39.235Z,86.00
2023-05-14T13:55:10.487Z,84.40
2023-05-14T13:57:43.166Z,87.20
2023-05-14T14:00:17.046Z,84.80
2023-05-14T14:02:47.793Z,84.60
2023-05-14T14:05:18.315Z,84.20
2023-05-14T14:07:50.516Z,85.10
2023-05-14T14:10:23.338Z,85.00
2023-05-14T14:12:54.454Z,86.20
2023-05-14T14:15:26.196Z,84.00
2023-05-14T14:17:57.305Z,83.70
2023-05-14T14:20:27.958Z,83.20
2023-05-14T14:22:58.733Z,83.80
2023-05-14T14:25:29.159Z,81.50
2023-05-14T14:28:00.171Z,82.20
2023-05-14T14:30:31.726Z,83.10
2023-05-14T14:33:02.577Z,81.30
2023-05-14T14:35:33.514Z,82.80
2023-05-14T14:38:04.290Z,82.50
2023-05-14T14:40:35.439Z,87.30
2023-05-14T14:43:06.136Z,85.30
2023-05-14T14:45:37.939Z,89.20
2023-05-14T14:48:28.814Z,87.80
2023-05-14T14:50:59.360Z,88.00
2023-05-14T14:53:30.121Z,87.80
2023-05-14T14:56:01.716Z,87.50
2023-05-14T14:58:32.816Z,89.10
2023-05-14T15:01:05.183Z,90.00
2023-05-14T15:03:36.113Z,90.00
2023-05-14T15:06:06.833Z,90.50
2023-05-14T15:08:37.603Z,88.60
2023-05-14T15:11:08.706Z,89.80
2023-05-14T15:13:41.022Z,89.20
2023-05-14T15:16:13.849Z,90.60
2023-05-14T15:18:44.775Z,89.20
2023-05-14T15:21:15.231Z,90.40
2023-05-14T15:23:45.927Z,90.70
2023-05-14T15:26:16.363Z,89.40
2023-05-14T15:28:47.097Z,89.90
2023-05-14T15:31:18.836Z,90.30
2023-05-14T15:33:49.668Z,89.20
2023-05-14T15:36:20.006Z,88.10
2023-05-14T15:38:50.598Z,89.40
2023-05-14T15:41:21.272Z,90.00
2023-05-14T15:43:52.051Z,89.30
2023-05-14T15:46:24.198Z,90.00
2023-05-14T15:48:54.839Z,90.20
2023-05-14T15:51:25.324Z,91.20
2023-05-14T15:53:56.123Z,92.00
2023-05-14T15:56:26.521Z,90.40
2023-05-14T15:58:57.170Z,90.50
2023-05-14T16:01:28.983Z,92.00
2023-05-14T16:03:59.791Z,92.10
2023-05-14T16:06:30.162Z,91.50
2023-05-14T16:09:03.036Z,91.50
2023-05-14T16:11:33.516Z,91.50
2023-05-14T16:14:04.318Z,92.30
2023-05-14T16:16:36.166Z,93.10
2023-05-14T16:19:06.794Z,92.00
2023-05-14T16:21:37.030Z,91.90
2023-05-14T16:24:09.326Z,92.50
2023-05-14T16:26:39.954Z,92.50
2023-05-14T16:29:10.775Z,93.70
2023-05-14T16:31:42.726Z,93.00
2023-05-14T16:34:13.463Z,93.70
2023-05-14T16:36:44.062Z,93.80
2023-05-14T16:39:14.947Z,92.90
2023-05-14T16:41:45.192Z,93.80
2023-05-14T16:44:16.088Z,97.50
2023-05-14T16:46:48.196Z,98.40
2023-05-14T16:49:22.485Z,97.20
2023-05-14T16:51:52.762Z,95.70
2023-05-14T16:54:23.687Z,95.60
2023-05-14T16:56:54.269Z,96.30
2023-05-14T16:59:25.268Z,96.80
2023-05-14T17:01:56.990Z,95.30
2023-05-14T17:04:27.746Z,96.70
2023-05-14T17:06:58.858Z,97.20
2023-05-14T17:09:29.581Z,95.10
2023-05-14T17:11:59.958Z,95.80
2023-05-14T17:14:30.595Z,96.60
2023-05-14T17:17:03.145Z,97.10
2023-05-14T17:19:33.666Z,97.70
2023-05-14T17:22:05.940Z,97.10
2023-05-14T17:24:39.055Z,96.60
2023-05-14T17:27:09.763Z,96.80
2023-05-14T17:29:40.390Z,97.70
2023-05-14T17:32:12.304Z,98.40
2023-05-14T17:34:42.817Z,99.30
2023-05-14T17:37:13.293Z,98.90
2023-05-14T17:39:43.910Z,98.60
2023-05-14T17:42:14.230Z,99.40
2023-05-14T17:44:45.391Z,99.90
2023-05-14T17:47:17.155Z,99.60
2023-05-14T17:49:48.025Z,99.90
2023-05-14T17:52:18.413Z,99.90
2023-05-14T17:54:49.187Z,99.90
2023-05-14T17:57:19.561Z,99.90
2023-05-14T17:59:50.154Z,98.40
2023-05-14T18:02:22.037Z,99.90
2023-05-14T18:04:55.847Z,99.90
2023-05-14T18:07:26.567Z,99.90
2023-05-14T18:10:00.224Z,99.90
2023-05-14T18:12:31.185Z,99.90
2023-05-14T18:15:02.228Z,99.90
2023-05-14T18:17:34.214Z,99.90
2023-05-14T18:20:05.300Z,99.90
2023-05-14T18:22:36.591Z,99.90
2023-05-14T18:25:09.721Z,99.90
2023-05-14T18:27:45.638Z,99.90
2023-05-14T18:30:18.089Z,99.90
2023-05-14T18:32:50.176Z,99.90
2023-05-14T18:35:21.281Z,99.90
2023-05-14T18:37:52.059Z,99.90
2023-05-14T18:40:24.953Z,99.90
2023-05-14T18:42:58.254Z,99.90
2023-05-14T18:45:29.435Z,99.90
2023-05-14T18:48:01.509Z,99.90
2023-05-14T18:50:37.399Z,99.90
2023-05-14T18:53:11.600Z,99.90
2023-05-14T18:55:44.148Z,99.90
2023-05-14T18:58:15.844Z,99.90
2023-05-14T19:00:47.560Z,99.90
2023-05-14T19:03:20.220Z,99.90
2023-05-14T19:05:53.432Z,99.90
2023-05-14T19:08:25.312Z,99.90
2023-05-14T19:10:56.396Z,99.90
2023-05-14T19:13:28.711Z,99.90
2023-05-14T19:16:00.669Z,99.90
2023-05-14T19:18:33.694Z,99.90
2023-05-14T19:21:07.090Z,99.90
2023-05-14T19:23:38.372Z,99.90
2023-05-14T19:26:09.212Z,99.90
2023-05-14T19:28:40.249Z,99.90
2023-05-14T19:31:11.706Z,99.90
2023-05-14T19:33:44.792Z,99.90
2023-05-14T19:36:21.116Z,99.90
2023-05-14T19:38:53.625Z,99.90
2023-05-14T19:41:27.878Z,99.90
2023-05-14T19:43:58.612Z,99.90
2023-05-14T19:46:29.418Z,99.90
2023-05-14T19:49:01.403Z,99.90
2023-05-14T19:51:32.796Z,99.90
2023-05-14T19:54:03.909Z,99.90
2023-05-14T19:56:34.796Z,99.90
2023-05-14T19:59:15.873Z,99.90
2023-05-14T20:01:49.922Z,99.90
2023-05-14T20:04:21.948Z,99.90
2023-05-14T20:06:54.966Z,99.90
2023-05-14T20:09:28.067Z,99.90
2023-05-14T20:11:59.893Z,99.90
2023-05-14T20:14:32.147Z,99.90
2023-05-14T20:17:05.141Z,99.90
2023-05-14T20:19:37.141Z,99.90
2023-05-14T20:22:09.343Z,99.90
2023-05-14T20:24:41.238Z,99.90
2023-05-14T20:27:13.328Z,99.90
2023-05-14T20:29:45.517Z,99.90
2023-05-14T20:32:16.842Z,99.90
2023-05-14T20:34:51.493Z,99.90
2023-05-14T20:37:24.137Z,99.90
2023-05-14T20:39:55.108Z,99.90
2023-05-14T20:42:27.237Z,99.90
2023-05-14T20:44:57.959Z,99.90
2023-05-14T20:47:31.444Z,99.90
2023-05-14T20:50:04.813Z,99.90
2023-05-14T20:52:36.948Z,99.90
2023-05-14T20:55:11.637Z,99.90
2023-05-14T20:57:44.852Z,99.90
2023-05-14T21:00:17.593Z,99.90
2023-05-14T21:02:50.443Z,99.90
2023-05-14T21:05:22.862Z,99.90
2023-05-14T21:07:54.051Z,99.90
2023-05-14T21:10:25.808Z,99.90
2023-05-14T21:12:56.947Z,99.90
2023-05-14T21:15:28.136Z,99.90
2023-05-14T21:18:04.137Z,99.90
2023-05-14T21:20:36.318Z,99.90
2023-05-14T21:23:07.317Z,99.90
2023-05-14T21:25:38.166Z,99.90
2023-05-14T21:28:10.493Z,99.90
2023-05-14T21:30:42.775Z,99.90
2023-05-14T21:33:14.174Z,99.90
2023-05-14T21:35:46.362Z,99.90
2023-05-14T21:38:19.479Z,99.90
2023-05-14T21:40:49.864Z,99.90
2023-05-14T21:43:24.033Z,99.90
2023-05-14T21:45:54.756Z,99.90
2023-05-14T21:48:25.564Z,99.90
2023-05-14T21:50:58.241Z,99.90
2023-05-14T21:53:29.048Z,99.90
2023-05-14T21:56:01.274Z,99.90
2023-05-14T21:58:33.295Z,99.90
2023-05-14T22:01:04.216Z,99.90
2023-05-14T22:03:36.325Z,99.90
2023-05-14T22:06:09.011Z,99.90
2023-05-14T22:08:39.841Z,99.90
2023-05-14T22:11:10.173Z,99.90
2023-05-14T22:13:41.922Z,99.90
2023-05-14T22:16:14.515Z,99.90
2023-05-14T22:18:45.833Z,99.90
2023-05-14T22:21:17.765Z,99.90
2023-05-14T22:23:49.904Z,99.90
2023-05-14T22:26:21.680Z,99.90
2023-05-14T22:28:52.700Z,99.90
2023-05-14T22:31:22.960Z,99.90
2023-05-14T22:33:53.785Z,99.90
2023-05-14T22:36:25.712Z,99.90
2023-05-14T22:38:56.478Z,99.90
2023-05-14T22:41:26.922Z,99.90
2023-05-14T22:43:57.651Z,99.90
2023-05-14T22:46:27.993Z,99.90
2023-05-14T22:48:58.891Z,99.90
2023-05-14T22:51:30.682Z,99.90
2023-05-14T22:54:01.381Z,99.90
2023-05-14T22:56:31.992Z,99.90
2023-05-14T22:59:02.641Z,99.90
2023-05-14T23:01:34.046Z,99.90
2023-05-14T23:04:05.087Z,99.90
2023-05-14T23:06:37.157Z,99.90
2023-05-14T23:09:07.692Z,99.90
2023-05-14T23:11:37.969Z,99.90
2023-05-14T23:14:09.110Z,99.90
2023-05-14T23:16:39.864Z,99.90
2023-05-14T23:19:10.644Z,99.90
2023-05-14T23:21:42.562Z,99.90
2023-05-14T23:24:13.310Z,99.90
2023-05-14T23:26:43.545Z,99.90
2023-05-14T23:29:13.970Z,99.90
2023-05-14T23:31:44.197Z,99.90
2023-05-14T23:34:22.177Z,99.90
2023-05-14T23:36:54.047Z,99.90
2023-05-14T23:39:24.681Z,99.90
2023-05-14T23:41:54.892Z,99.90
2023-05-14T23:44:25.509Z,99.90
2023-05-14T23:46:56.068Z,99.90
2023-05-14T23:49:26.967Z,99.90
2023-05-14T23:51:58.666Z,99.90
2023-05-14T23:54:29.391Z,99.90
2023-05-14T23:56:59.762Z,99.90
2023-05-14T23:59:30.497Z,99.90
